createdAt,value
2023-02-27T00:00:22.135Z,68.67
2023-02-27T00:01:22.105Z,68.67
2023-02-27T00:02:22.169Z,68.57
2023-02-27T00:03:22.103Z,68.77
2023-02-27T00:04:22.081Z,68.67
2023-02-27T00:05:22.070Z,68.57
2023-02-27T00:06:22.046Z,68.60
2023-02-27T00:07:22.046Z,68.60
2023-02-27T00:08:22.055Z,68.70
2023-02-27T00:09:22.016Z,68.70
2023-02-27T00:10:22.025Z,68.91
2023-02-27T00:11:22.004Z,68.91
2023-02-27T00:12:22.008Z,68.70
2023-02-27T00:13:21.989Z,68.60
2023-02-27T00:14:21.978Z,68.70
2023-02-27T00:15:21.993Z,68.70
2023-02-27T00:16:22.001Z,68.70
2023-02-27T00:17:21.936Z,68.80
2023-02-27T00:18:21.983Z,68.80
2023-02-27T00:19:21.930Z,68.80
2023-02-27T00:20:21.905Z,68.91
2023-02-27T00:21:21.888Z,69.15
2023-02-27T00:22:21.886Z,69.15
2023-02-27T00:23:21.902Z,69.04
2023-02-27T00:24:21.866Z,69.26
2023-02-27T00:25:21.847Z,69.36
2023-02-27T00:26:21.838Z,69.46
2023-02-27T00:27:21.830Z,69.46
2023-02-27T00:28:21.861Z,69.57
2023-02-27T00:29:21.808Z,69.67
2023-02-27T00:30:21.797Z,69.78
2023-02-27T00:31:21.870Z,69.78
2023-02-27T00:32:21.828Z,69.78
2023-02-27T00:33:21.788Z,69.67
2023-02-27T00:34:21.771Z,69.57
2023-02-27T00:35:21.755Z,69.57
2023-02-27T00:36:21.740Z,69.67
2023-02-27T00:37:21.727Z,69.57
2023-02-27T00:38:21.747Z,69.67
2023-02-27T00:39:21.709Z,69.67
2023-02-27T00:40:21.709Z,69.57
2023-02-27T00:41:21.690Z,69.67
2023-02-27T00:42:21.678Z,69.88
2023-02-27T00:43:21.693Z,69.78
2023-02-27T00:44:21.658Z,69.78
2023-02-27T00:45:21.641Z,69.67
2023-02-27T00:46:21.665Z,69.78
2023-02-27T00:47:21.638Z,69.78
2023-02-27T00:48:21.653Z,69.88
2023-02-27T00:49:21.599Z,70.12
2023-02-27T00:50:21.614Z,70.23
2023-02-27T00:51:21.580Z,70.33
2023-02-27T00:52:21.589Z,70.43
2023-02-27T00:53:21.589Z,70.40
2023-02-27T00:54:21.557Z,70.33
2023-02-27T00:55:21.540Z,70.30
2023-02-27T00:56:21.546Z,70.30
2023-02-27T00:57:21.559Z,70.30
2023-02-27T00:58:21.538Z,70.23
2023-02-27T00:59:21.505Z,70.33
2023-02-27T01:00:21.512Z,70.43
2023-02-27T01:01:21.490Z,70.40
2023-02-27T01:02:21.523Z,70.33
2023-02-27T01:03:21.482Z,70.20
2023-02-27T01:04:21.471Z,70.12
2023-02-27T01:05:21.489Z,70.33
2023-02-27T01:06:21.444Z,70.33
2023-02-27T01:07:21.425Z,70.33
2023-02-27T01:08:21.453Z,70.23
2023-02-27T01:09:21.437Z,70.02
2023-02-27T01:10:21.412Z,70.02
2023-02-27T01:11:21.388Z,70.02
2023-02-27T01:12:21.385Z,70.02
2023-02-27T01:13:21.389Z,70.02
2023-02-27T01:14:21.377Z,70.12
2023-02-27T01:15:21.381Z,70.33
2023-02-27T01:16:21.364Z,70.33
2023-02-27T01:17:21.334Z,70.33
2023-02-27T01:18:21.353Z,70.33
2023-02-27T01:19:21.335Z,70.54
2023-02-27T01:20:21.302Z,70.65
2023-02-27T01:21:21.293Z,70.75
2023-02-27T01:22:21.284Z,70.86
2023-02-27T01:23:21.287Z,70.96
2023-02-27T01:24:21.261Z,71.06
2023-02-27T01:25:21.255Z,71.17
2023-02-27T01:26:21.252Z,71.17
2023-02-27T01:27:21.225Z,71.28
2023-02-27T01:28:21.266Z,71.28
2023-02-27T01:29:21.227Z,71.28
2023-02-27T01:30:21.198Z,71.28
2023-02-27T01:31:21.219Z,71.28
2023-02-27T01:32:21.265Z,71.17
2023-02-27T01:33:21.187Z,71.06
2023-02-27T01:34:21.155Z,71.06
2023-02-27T01:35:21.163Z,71.28
2023-02-27T01:36:21.143Z,71.28
2023-02-27T01:37:21.129Z,71.38
2023-02-27T01:38:21.140Z,71.38
2023-02-27T01:39:21.114Z,71.28
2023-02-27T01:40:21.096Z,71.17
2023-02-27T01:41:21.120Z,71.06
2023-02-27T01:42:21.084Z,70.96
2023-02-27T01:43:21.087Z,70.96
2023-02-27T01:44:21.052Z,70.96
2023-02-27T01:45:21.049Z,71.06
2023-02-27T01:46:21.039Z,71.28
2023-02-27T01:47:21.030Z,71.38
2023-02-27T01:48:21.030Z,71.28
2023-02-27T01:49:21.020Z,71.28
2023-02-27T01:50:20.990Z,71.17
2023-02-27T01:51:21.000Z,70.93
2023-02-27T01:52:20.969Z,70.83
2023-02-27T01:53:20.983Z,70.86
2023-02-27T01:54:20.965Z,70.86
2023-02-27T01:55:20.950Z,70.83
2023-02-27T01:56:20.940Z,70.83
2023-02-27T01:57:20.932Z,70.72
2023-02-27T01:58:20.931Z,70.51
2023-02-27T01:59:20.912Z,70.40
2023-02-27T02:00:20.912Z,70.40
2023-02-27T02:01:20.943Z,70.40
2023-02-27T02:02:20.906Z,70.51
2023-02-27T02:03:20.899Z,70.51
2023-02-27T02:04:20.857Z,70.51
2023-02-27T02:05:20.842Z,70.40
2023-02-27T02:06:20.833Z,70.30
2023-02-27T02:07:20.832Z,70.30
2023-02-27T02:08:20.837Z,70.30
2023-02-27T02:09:20.811Z,70.40
2023-02-27T02:10:20.805Z,70.20
2023-02-27T02:11:20.791Z,69.99
2023-02-27T02:12:20.773Z,69.99
2023-02-27T02:13:20.782Z,70.09
2023-02-27T02:14:20.751Z,69.88
2023-02-27T02:15:20.744Z,70.09
2023-02-27T02:16:20.785Z,70.09
2023-02-27T02:17:20.730Z,69.99
2023-02-27T02:18:20.735Z,70.09
2023-02-27T02:19:20.706Z,70.02
2023-02-27T02:20:20.710Z,70.02
2023-02-27T02:21:20.687Z,70.20
2023-02-27T02:22:20.676Z,70.23
2023-02-27T02:23:20.687Z,70.23
2023-02-27T02:24:20.656Z,70.23
2023-02-27T02:25:20.644Z,70.12
2023-02-27T02:26:20.630Z,70.23
2023-02-27T02:27:20.628Z,70.33
2023-02-27T02:28:20.627Z,70.33
2023-02-27T02:29:20.606Z,70.43
2023-02-27T02:30:20.587Z,70.33
2023-02-27T02:31:20.738Z,70.23
2023-02-27T02:32:20.589Z,70.33
2023-02-27T02:33:20.588Z,70.54
2023-02-27T02:34:20.573Z,70.54
2023-02-27T02:35:20.578Z,70.54
2023-02-27T02:36:20.555Z,70.43
2023-02-27T02:37:20.545Z,70.47
2023-02-27T02:38:20.522Z,70.47
2023-02-27T02:39:20.519Z,70.37
2023-02-27T02:40:20.492Z,70.37
2023-02-27T02:41:20.489Z,70.47
2023-02-27T02:42:20.480Z,70.57
2023-02-27T02:43:20.460Z,70.57
2023-02-27T02:44:20.473Z,70.57
2023-02-27T02:45:20.439Z,70.57
2023-02-27T02:46:20.519Z,70.68
2023-02-27T02:47:20.425Z,70.57
2023-02-27T02:48:20.415Z,70.57
2023-02-27T02:49:20.421Z,70.57
2023-02-27T02:50:20.392Z,70.47
2023-02-27T02:51:20.405Z,70.37
2023-02-27T02:52:20.374Z,70.57
2023-02-27T02:53:20.365Z,70.78
2023-02-27T02:54:20.365Z,70.89
2023-02-27T02:55:20.346Z,70.89
2023-02-27T02:56:20.334Z,70.99
2023-02-27T02:57:20.324Z,70.99
2023-02-27T02:58:20.310Z,70.89
2023-02-27T02:59:20.327Z,71.03
2023-02-27T03:00:20.293Z,71.03
2023-02-27T03:01:20.334Z,71.13
2023-02-27T03:02:20.265Z,71.13
2023-02-27T03:03:20.268Z,71.03
2023-02-27T03:04:20.321Z,70.89
2023-02-27T03:05:20.264Z,70.99
2023-02-27T03:06:20.248Z,71.03
2023-02-27T03:07:20.283Z,71.13
2023-02-27T03:08:20.218Z,71.23
2023-02-27T03:09:20.244Z,71.23
2023-02-27T03:10:20.186Z,71.44
2023-02-27T03:11:20.177Z,71.34
2023-02-27T03:12:20.176Z,71.34
2023-02-27T03:13:20.171Z,71.23
2023-02-27T03:14:20.177Z,71.34
2023-02-27T03:15:20.144Z,71.34
2023-02-27T03:16:20.129Z,71.44
2023-02-27T03:17:20.121Z,71.44
2023-02-27T03:18:20.138Z,71.44
2023-02-27T03:19:20.121Z,71.44
2023-02-27T03:20:20.078Z,71.44
2023-02-27T03:21:20.077Z,71.55
2023-02-27T03:22:20.089Z,71.44
2023-02-27T03:23:20.059Z,71.34
2023-02-27T03:24:20.057Z,71.34
2023-02-27T03:25:20.036Z,71.34
2023-02-27T03:26:20.035Z,71.34
2023-02-27T03:27:20.038Z,71.44
2023-02-27T03:28:20.007Z,71.44
2023-02-27T03:29:20.019Z,71.55
2023-02-27T03:30:19.978Z,71.66
2023-02-27T03:31:20.089Z,71.55
2023-02-27T03:32:19.999Z,71.66
2023-02-27T03:33:19.958Z,71.76
2023-02-27T03:34:19.958Z,71.69
2023-02-27T03:35:19.929Z,71.79
2023-02-27T03:36:19.918Z,71.79
2023-02-27T03:37:19.907Z,72.00
2023-02-27T03:38:19.898Z,71.79
2023-02-27T03:39:19.928Z,71.89
2023-02-27T03:40:19.876Z,71.79
2023-02-27T03:41:19.865Z,72.00
2023-02-27T03:42:19.860Z,72.00
2023-02-27T03:43:19.848Z,72.11
2023-02-27T03:44:19.858Z,72.11
2023-02-27T03:45:19.827Z,72.21
2023-02-27T03:46:19.865Z,72.21
2023-02-27T03:47:19.809Z,72.21
2023-02-27T03:48:19.802Z,72.21
2023-02-27T03:49:19.808Z,72.31
2023-02-27T03:50:19.777Z,72.42
2023-02-27T03:51:19.769Z,72.31
2023-02-27T03:52:19.768Z,72.42
2023-02-27T03:53:19.750Z,72.52
2023-02-27T03:54:19.750Z,72.42
2023-02-27T03:55:19.742Z,72.42
2023-02-27T03:56:19.712Z,72.52
2023-02-27T03:57:19.712Z,72.42
2023-02-27T03:58:19.709Z,72.42
2023-02-27T03:59:19.710Z,72.52
2023-02-27T04:00:19.675Z,72.52
2023-02-27T04:01:19.671Z,72.42
2023-02-27T04:02:19.651Z,72.31
2023-02-27T04:03:19.653Z,72.31
2023-02-27T04:04:19.661Z,72.31
2023-02-27T04:05:19.749Z,72.31
2023-02-27T04:06:19.616Z,72.34
2023-02-27T04:07:19.613Z,72.56
2023-02-27T04:08:19.610Z,72.56
2023-02-27T04:09:19.602Z,72.45
2023-02-27T04:10:19.564Z,72.56
2023-02-27T04:11:19.570Z,72.56
2023-02-27T04:12:19.550Z,72.66
2023-02-27T04:13:19.553Z,72.66
2023-02-27T04:14:19.554Z,72.56
2023-02-27T04:15:19.525Z,72.66
2023-02-27T04:16:19.546Z,72.56
2023-02-27T04:17:19.516Z,72.45
2023-02-27T04:18:19.506Z,72.56
2023-02-27T04:19:19.515Z,72.66
2023-02-27T04:20:19.477Z,72.66
2023-02-27T04:21:19.466Z,72.66
2023-02-27T04:22:19.454Z,72.56
2023-02-27T04:23:19.454Z,72.56
2023-02-27T04:24:19.456Z,72.66
2023-02-27T04:25:19.427Z,72.98
2023-02-27T04:26:19.407Z,72.98
2023-02-27T04:27:19.409Z,72.98
2023-02-27T04:28:19.394Z,73.08
2023-02-27T04:29:19.403Z,73.19
2023-02-27T04:30:19.371Z,73.08
2023-02-27T04:31:19.451Z,73.19
2023-02-27T04:32:19.448Z,73.19
2023-02-27T04:33:19.353Z,73.29
2023-02-27T04:34:19.363Z,73.29
2023-02-27T04:35:19.335Z,73.19
2023-02-27T04:36:19.323Z,73.19
2023-02-27T04:37:19.313Z,73.22
2023-02-27T04:38:19.309Z,73.22
2023-02-27T04:39:19.307Z,73.33
2023-02-27T04:40:19.278Z,73.19
2023-02-27T04:41:19.275Z,73.08
2023-02-27T04:42:19.259Z,72.98
2023-02-27T04:43:19.257Z,73.19
2023-02-27T04:44:19.262Z,73.19
2023-02-27T04:45:19.246Z,73.39
2023-02-27T04:46:19.221Z,73.71
2023-02-27T04:47:19.213Z,73.82
2023-02-27T04:48:19.220Z,73.71
2023-02-27T04:49:19.216Z,73.61
2023-02-27T04:50:19.199Z,73.39
2023-02-27T04:51:19.172Z,73.29
2023-02-27T04:52:19.161Z,73.64
2023-02-27T04:53:19.153Z,73.74
2023-02-27T04:54:19.160Z,73.96
2023-02-27T04:55:19.134Z,74.06
2023-02-27T04:56:19.134Z,74.06
2023-02-27T04:57:19.121Z,73.96
2023-02-27T04:58:19.107Z,73.96
2023-02-27T04:59:19.105Z,73.74
2023-02-27T05:00:19.096Z,73.64
2023-02-27T05:01:19.083Z,73.96
2023-02-27T05:02:19.160Z,74.16
2023-02-27T05:03:19.063Z,74.37
2023-02-27T05:04:19.051Z,74.48
2023-02-27T05:05:19.037Z,74.48
2023-02-27T05:06:19.013Z,74.37
2023-02-27T05:07:19.006Z,74.37
2023-02-27T05:08:19.000Z,74.16
2023-02-27T05:09:19.263Z,74.27
2023-02-27T05:10:18.977Z,74.16
2023-02-27T05:11:18.962Z,74.06
2023-02-27T05:12:18.970Z,74.06
2023-02-27T05:13:18.945Z,73.96
2023-02-27T05:14:18.968Z,73.85
2023-02-27T05:15:18.927Z,73.85
2023-02-27T05:16:18.947Z,73.99
2023-02-27T05:17:18.916Z,74.09
2023-02-27T05:18:18.916Z,74.41
2023-02-27T05:19:18.916Z,74.51
2023-02-27T05:20:18.882Z,74.62
2023-02-27T05:21:18.868Z,74.51
2023-02-27T05:22:18.856Z,74.73
2023-02-27T05:23:18.850Z,74.62
2023-02-27T05:24:18.846Z,74.51
2023-02-27T05:25:18.832Z,74.41
2023-02-27T05:26:18.848Z,74.20
2023-02-27T05:27:18.815Z,74.09
2023-02-27T05:28:18.796Z,73.88
2023-02-27T05:29:18.810Z,73.99
2023-02-27T05:30:18.776Z,73.99
2023-02-27T05:31:18.834Z,73.99
2023-02-27T05:32:18.943Z,73.88
2023-02-27T05:33:18.760Z,73.78
2023-02-27T05:34:18.752Z,73.88
2023-02-27T05:35:18.732Z,73.78
2023-02-27T05:36:18.721Z,73.68
2023-02-27T05:37:18.713Z,73.68
2023-02-27T05:38:18.725Z,73.78
2023-02-27T05:39:18.708Z,73.78
2023-02-27T05:40:18.678Z,73.88
2023-02-27T05:41:18.667Z,73.88
2023-02-27T05:42:18.655Z,73.99
2023-02-27T05:43:18.637Z,73.88
2023-02-27T05:44:18.635Z,73.99
2023-02-27T05:45:18.636Z,73.99
2023-02-27T05:46:18.656Z,74.09
2023-02-27T05:47:18.616Z,74.09
2023-02-27T05:48:19.852Z,74.20
2023-02-27T05:49:18.588Z,74.20
2023-02-27T05:50:18.587Z,74.20
2023-02-27T05:51:18.556Z,74.23
2023-02-27T05:52:18.546Z,74.33
2023-02-27T05:53:18.535Z,74.44
2023-02-27T05:54:18.490Z,74.55
2023-02-27T05:55:18.902Z,74.55
2023-02-27T05:56:18.508Z,74.65
2023-02-27T05:57:18.496Z,74.33
2023-02-27T05:58:18.513Z,74.02
2023-02-27T05:59:18.481Z,73.92
2023-02-27T06:00:18.506Z,73.81
2023-02-27T06:01:18.428Z,73.81
2023-02-27T06:02:18.473Z,74.02
2023-02-27T06:03:18.473Z,74.02
2023-02-27T06:04:18.445Z,73.92
2023-02-27T06:05:18.395Z,74.02
2023-02-27T06:06:18.365Z,74.13
2023-02-27T06:07:18.357Z,74.13
2023-02-27T06:08:18.338Z,74.02
2023-02-27T06:09:18.324Z,73.92
2023-02-27T06:10:18.336Z,74.02
2023-02-27T06:11:18.326Z,73.92
2023-02-27T06:12:18.297Z,73.92
2023-02-27T06:13:18.285Z,74.05
2023-02-27T06:14:18.277Z,74.27
2023-02-27T06:15:18.284Z,74.27
2023-02-27T06:16:18.349Z,74.27
2023-02-27T06:17:18.250Z,74.37
2023-02-27T06:18:18.239Z,74.58
2023-02-27T06:19:18.226Z,74.79
2023-02-27T06:20:18.242Z,74.68
2023-02-27T06:21:18.213Z,74.79
2023-02-27T06:22:18.198Z,75.10
2023-02-27T06:23:18.201Z,75.10
2023-02-27T06:24:18.182Z,75.21
2023-02-27T06:25:18.198Z,75.21
2023-02-27T06:26:18.160Z,75.32
2023-02-27T06:27:18.150Z,75.42
2023-02-27T06:28:18.139Z,75.63
2023-02-27T06:29:18.128Z,75.74
2023-02-27T06:30:18.156Z,75.74
2023-02-27T06:31:18.140Z,75.63
2023-02-27T06:32:18.250Z,75.70
2023-02-27T06:33:18.088Z,75.81
2023-02-27T06:34:18.087Z,76.02
2023-02-27T06:35:18.089Z,76.23
2023-02-27T06:36:18.062Z,76.33
2023-02-27T06:37:18.045Z,76.75
2023-02-27T06:38:18.045Z,76.54
2023-02-27T06:39:18.022Z,76.65
2023-02-27T06:40:18.037Z,76.65
2023-02-27T06:41:17.998Z,76.54
2023-02-27T06:42:17.990Z,76.54
2023-02-27T06:43:17.980Z,76.43
2023-02-27T06:44:19.493Z,76.43
2023-02-27T06:45:17.978Z,76.54
2023-02-27T06:46:18.052Z,76.54
2023-02-27T06:47:17.939Z,76.33
2023-02-27T06:48:17.936Z,76.33
2023-02-27T06:49:17.943Z,76.43
2023-02-27T06:50:17.930Z,76.65
2023-02-27T06:51:17.903Z,76.86
2023-02-27T06:52:17.907Z,76.86
2023-02-27T06:53:17.890Z,76.86
2023-02-27T06:54:17.867Z,76.75
2023-02-27T06:55:17.871Z,76.86
2023-02-27T06:56:17.852Z,76.86
2023-02-27T06:57:17.844Z,76.96
2023-02-27T06:58:17.834Z,76.96
2023-02-27T06:59:17.817Z,77.17
2023-02-27T07:00:17.828Z,77.28
2023-02-27T07:01:17.834Z,77.38
2023-02-27T07:02:17.803Z,77.28
2023-02-27T07:03:17.782Z,77.17
2023-02-27T07:04:17.847Z,77.28
2023-02-27T07:05:17.779Z,77.28
2023-02-27T07:06:17.750Z,77.28
2023-02-27T07:07:33.347Z,77.38
2023-02-27T07:08:18.735Z,77.59
2023-02-27T07:09:17.721Z,77.48
2023-02-27T07:10:17.737Z,77.59
2023-02-27T07:11:17.722Z,77.70
2023-02-27T07:12:17.695Z,77.80
2023-02-27T07:13:19.520Z,77.70
2023-02-27T07:14:17.693Z,77.80
2023-02-27T07:15:17.677Z,77.70
2023-02-27T07:16:17.691Z,77.70
2023-02-27T07:17:17.646Z,77.59
2023-02-27T07:18:17.631Z,78.12
2023-02-27T07:19:17.644Z,78.64
2023-02-27T07:20:17.664Z,79.31
2023-02-27T07:21:17.593Z,80.04
2023-02-27T07:22:17.606Z,80.46
2023-02-27T07:23:17.582Z,80.68
2023-02-27T07:24:17.585Z,80.78
2023-02-27T07:25:17.588Z,80.88
2023-02-27T07:26:17.554Z,80.99
2023-02-27T07:27:17.538Z,80.85
2023-02-27T07:28:17.569Z,80.85
2023-02-27T07:29:17.526Z,80.85
2023-02-27T07:30:17.579Z,80.85
2023-02-27T07:31:17.541Z,80.74
2023-02-27T07:32:17.530Z,80.74
2023-02-27T07:33:17.600Z,80.64
2023-02-27T07:34:17.492Z,80.60
2023-02-27T07:35:17.484Z,80.60
2023-02-27T07:36:17.461Z,80.49
2023-02-27T07:37:17.440Z,80.39
2023-02-27T07:38:17.440Z,80.39
2023-02-27T07:39:17.461Z,80.49
2023-02-27T07:40:17.433Z,80.60
2023-02-27T07:41:29.590Z,80.49
2023-02-27T07:42:18.395Z,80.46
2023-02-27T07:43:17.383Z,80.46
2023-02-27T07:44:17.390Z,80.35
2023-02-27T07:45:17.384Z,80.35
2023-02-27T07:46:17.387Z,80.35
2023-02-27T07:47:17.344Z,80.35
2023-02-27T07:48:17.345Z,80.35
2023-02-27T07:49:17.329Z,80.25
2023-02-27T07:50:17.339Z,80.15
2023-02-27T07:51:17.326Z,80.00
2023-02-27T07:52:17.298Z,80.00
2023-02-27T07:53:17.290Z,80.00
2023-02-27T07:54:17.285Z,80.11
2023-02-27T07:55:17.276Z,80.00
2023-02-27T07:56:17.287Z,80.00
2023-02-27T07:57:17.254Z,79.79
2023-02-27T07:58:17.239Z,79.79
2023-02-27T07:59:17.227Z,79.69
2023-02-27T08:00:17.239Z,79.65
2023-02-27T08:01:17.201Z,79.55
2023-02-27T08:02:17.200Z,79.55
2023-02-27T08:03:17.203Z,79.65
2023-02-27T08:04:17.222Z,79.34
2023-02-27T08:05:17.191Z,79.02
2023-02-27T08:06:17.171Z,78.92
2023-02-27T08:07:17.146Z,78.71
2023-02-27T08:08:17.132Z,78.57
2023-02-27T08:09:17.129Z,78.46
2023-02-27T08:10:17.142Z,78.46
2023-02-27T08:11:17.098Z,78.46
2023-02-27T08:12:17.092Z,78.36
2023-02-27T08:13:24.943Z,78.36
2023-02-27T08:14:18.071Z,78.36
2023-02-27T08:15:17.100Z,78.22
2023-02-27T08:16:17.260Z,78.22
2023-02-27T08:17:17.044Z,78.01
2023-02-27T08:18:17.035Z,77.80
2023-02-27T08:19:17.027Z,77.07
2023-02-27T08:20:17.038Z,76.82
2023-02-27T08:21:17.014Z,76.82
2023-02-27T08:22:16.998Z,76.82
2023-02-27T08:23:16.984Z,76.61
2023-02-27T08:24:16.977Z,76.20
2023-02-27T08:25:16.975Z,76.09
2023-02-27T08:26:16.957Z,76.16
2023-02-27T08:27:16.944Z,76.16
2023-02-27T08:28:16.946Z,76.16
2023-02-27T08:29:17.139Z,75.95
2023-02-27T08:30:16.934Z,75.95
2023-02-27T08:31:16.939Z,76.06
2023-02-27T08:32:16.969Z,75.81
2023-02-27T08:33:16.886Z,75.60
2023-02-27T08:34:16.885Z,75.49
2023-02-27T08:35:16.872Z,75.60
2023-02-27T08:36:16.863Z,75.60
2023-02-27T08:37:16.844Z,75.36
2023-02-27T08:38:16.831Z,75.26
2023-02-27T08:39:16.813Z,75.15
2023-02-27T08:40:16.824Z,75.04
2023-02-27T08:41:16.794Z,75.15
2023-02-27T08:42:16.787Z,75.15
2023-02-27T08:43:16.795Z,75.04
2023-02-27T08:44:16.767Z,74.94
2023-02-27T08:45:16.774Z,74.94
2023-02-27T08:46:16.742Z,74.73
2023-02-27T08:47:16.735Z,74.52
2023-02-27T08:48:16.726Z,74.28
2023-02-27T08:49:16.715Z,74.38
2023-02-27T08:50:16.711Z,74.49
2023-02-27T08:51:16.732Z,74.49
2023-02-27T08:52:16.704Z,74.07
2023-02-27T08:53:16.676Z,73.86
2023-02-27T08:54:16.666Z,73.75
2023-02-27T08:55:16.665Z,73.65
2023-02-27T08:56:16.680Z,73.30
2023-02-27T08:57:16.640Z,73.41
2023-02-27T08:58:17.896Z,73.52
2023-02-27T08:59:16.610Z,73.52
2023-02-27T09:00:16.710Z,73.41
2023-02-27T09:01:16.680Z,73.20
2023-02-27T09:02:16.588Z,73.30
2023-02-27T09:03:16.573Z,73.52
2023-02-27T09:04:16.559Z,73.52
2023-02-27T09:05:16.548Z,73.41
2023-02-27T09:06:16.558Z,72.99
2023-02-27T09:07:16.535Z,72.75
2023-02-27T09:08:16.523Z,73.07
2023-02-27T09:09:16.510Z,72.85
2023-02-27T09:10:16.504Z,72.85
2023-02-27T09:11:16.501Z,72.96
2023-02-27T09:12:16.482Z,72.96
2023-02-27T09:13:16.476Z,72.75
2023-02-27T09:14:16.465Z,72.54
2023-02-27T09:15:16.457Z,72.54
2023-02-27T09:16:16.622Z,72.85
2023-02-27T09:17:16.425Z,73.27
2023-02-27T09:18:16.423Z,73.34
2023-02-27T09:19:16.417Z,73.03
2023-02-27T09:20:16.403Z,72.82
2023-02-27T09:21:16.404Z,72.51
2023-02-27T09:22:16.384Z,72.41
2023-02-27T09:23:16.373Z,72.41
2023-02-27T09:24:20.315Z,72.51
2023-02-27T09:25:16.346Z,72.61
2023-02-27T09:26:16.412Z,72.82
2023-02-27T09:27:16.328Z,73.13
2023-02-27T09:28:16.317Z,73.45
2023-02-27T09:29:16.313Z,72.92
2023-02-27T09:30:16.296Z,72.09
2023-02-27T09:31:16.333Z,72.16
2023-02-27T09:32:16.369Z,72.37
2023-02-27T09:33:16.259Z,72.47
2023-02-27T09:34:16.289Z,72.37
2023-02-27T09:35:16.252Z,72.27
2023-02-27T09:36:16.269Z,71.95
2023-02-27T09:37:16.216Z,71.95
2023-02-27T09:38:16.229Z,70.81
2023-02-27T09:39:16.199Z,70.50
2023-02-27T09:40:16.206Z,70.70
2023-02-27T09:41:16.201Z,70.98
2023-02-27T09:42:16.199Z,71.09
2023-02-27T09:43:16.231Z,71.30
2023-02-27T09:44:16.151Z,71.71
2023-02-27T09:45:16.143Z,71.71
2023-02-27T09:46:16.208Z,72.13
2023-02-27T09:47:16.141Z,72.24
2023-02-27T09:48:16.112Z,72.13
2023-02-27T09:49:16.110Z,71.92
2023-02-27T09:50:16.099Z,70.74
2023-02-27T09:51:16.110Z,71.05
2023-02-27T09:52:16.071Z,71.16
2023-02-27T09:53:16.063Z,71.37
2023-02-27T09:54:16.051Z,71.44
2023-02-27T09:55:16.033Z,71.44
2023-02-27T09:56:16.065Z,71.12
2023-02-27T09:57:16.028Z,71.02
2023-02-27T09:58:16.034Z,71.12
2023-02-27T09:59:16.003Z,71.02
2023-02-27T10:00:15.986Z,70.36
2023-02-27T10:01:16.002Z,68.07
2023-02-27T10:02:15.994Z,67.66
2023-02-27T10:03:16.004Z,66.51
2023-02-27T10:04:15.947Z,66.27
2023-02-27T10:05:15.936Z,66.27
2023-02-27T10:06:15.945Z,66.27
2023-02-27T10:07:15.916Z,66.38
2023-02-27T10:08:15.909Z,66.90
2023-02-27T10:09:15.907Z,67.21
2023-02-27T10:10:15.889Z,67.00
2023-02-27T10:11:15.908Z,67.08
2023-02-27T10:12:15.877Z,66.97
2023-02-27T10:13:15.859Z,66.87
2023-02-27T10:14:15.850Z,65.93
2023-02-27T10:15:15.840Z,66.03
2023-02-27T10:16:15.911Z,65.90
2023-02-27T10:17:15.835Z,65.59
2023-02-27T10:18:26.105Z,64.34
2023-02-27T10:19:16.804Z,62.65
2023-02-27T10:20:15.789Z,62.76
2023-02-27T10:21:15.792Z,62.96
2023-02-27T10:22:15.766Z,62.96
2023-02-27T10:23:15.756Z,61.69
2023-02-27T10:24:15.761Z,61.90
2023-02-27T10:25:30.183Z,60.75
2023-02-27T10:26:16.745Z,58.47
2023-02-27T10:27:15.737Z,58.15
2023-02-27T10:28:15.715Z,58.36
2023-02-27T10:29:15.697Z,58.57
2023-02-27T10:30:23.596Z,58.86
2023-02-27T10:31:16.817Z,59.38
2023-02-27T10:32:15.740Z,59.58
2023-02-27T10:33:15.670Z,59.06
2023-02-27T10:34:15.644Z,58.75
2023-02-27T10:35:15.638Z,58.65
2023-02-27T10:36:30.680Z,59.06
2023-02-27T10:37:16.608Z,59.06
2023-02-27T10:38:15.596Z,58.75
2023-02-27T10:39:15.617Z,58.96
2023-02-27T10:40:15.580Z,59.56
2023-02-27T10:41:15.589Z,59.35
2023-02-27T10:42:15.572Z,59.56
2023-02-27T10:43:15.556Z,58.42
2023-02-27T10:44:15.549Z,58.62
2023-02-27T10:45:15.532Z,58.49
2023-02-27T10:46:15.573Z,58.39
2023-02-27T10:47:15.516Z,57.84
2023-02-27T10:48:15.498Z,57.71
2023-02-27T10:49:17.530Z,56.75
2023-02-27T10:50:15.477Z,56.75
2023-02-27T10:51:15.480Z,56.10
2023-02-27T10:52:15.456Z,55.25
2023-02-27T10:53:15.450Z,55.10
2023-02-27T10:54:15.434Z,53.42
2023-02-27T10:55:15.421Z,52.47
2023-02-27T10:56:15.419Z,50.79
2023-02-27T10:57:15.398Z,49.84
2023-02-27T10:58:15.388Z,49.30
2023-02-27T10:59:15.380Z,48.97
2023-02-27T11:00:15.387Z,48.43
2023-02-27T11:01:15.455Z,48.33
2023-02-27T11:02:15.357Z,47.81
2023-02-27T11:03:15.340Z,47.48
2023-02-27T11:04:15.348Z,47.35
2023-02-27T11:05:15.318Z,47.15
2023-02-27T11:06:15.326Z,47.23
2023-02-27T11:07:15.302Z,46.90
2023-02-27T11:08:15.279Z,46.98
2023-02-27T11:09:15.272Z,46.26
2023-02-27T11:10:15.270Z,45.21
2023-02-27T11:11:15.286Z,45.52
2023-02-27T11:12:15.245Z,45.09
2023-02-27T11:13:15.224Z,44.35
2023-02-27T11:14:15.242Z,44.86
2023-02-27T11:15:15.219Z,44.84
2023-02-27T11:16:15.407Z,44.84
2023-02-27T11:17:15.199Z,44.51
2023-02-27T11:18:15.174Z,44.64
2023-02-27T11:19:15.223Z,45.37
2023-02-27T11:20:15.165Z,45.15
2023-02-27T11:21:15.165Z,44.00
2023-02-27T11:22:15.140Z,43.77
2023-02-27T11:23:15.129Z,43.57
2023-02-27T11:24:15.119Z,43.77
2023-02-27T11:25:15.112Z,43.16
2023-02-27T11:26:15.162Z,42.65
2023-02-27T11:27:15.082Z,42.83
2023-02-27T11:28:15.092Z,42.73
2023-02-27T11:29:15.144Z,42.30
2023-02-27T11:30:16.320Z,41.77
2023-02-27T11:31:15.163Z,40.74
2023-02-27T11:32:15.117Z,39.70
2023-02-27T11:33:15.026Z,39.19
2023-02-27T11:34:15.016Z,39.28
2023-02-27T11:35:15.005Z,38.86
2023-02-27T11:36:17.513Z,39.26
2023-02-27T11:37:14.989Z,39.34
2023-02-27T11:38:14.967Z,39.97
2023-02-27T11:39:14.961Z,39.44
2023-02-27T11:40:14.961Z,38.21
2023-02-27T11:41:14.968Z,37.07
2023-02-27T11:42:16.951Z,37.21
2023-02-27T11:43:14.925Z,37.76
2023-02-27T11:44:14.908Z,37.98
2023-02-27T11:45:14.898Z,38.51
2023-02-27T11:46:46.474Z,39.35
2023-02-27T11:47:15.915Z,39.86
2023-02-27T11:48:14.860Z,40.56
2023-02-27T11:49:14.866Z,39.74
2023-02-27T11:50:14.917Z,39.74
2023-02-27T11:51:14.831Z,40.44
2023-02-27T11:52:14.832Z,39.55
2023-02-27T11:53:14.813Z,41.00
2023-02-27T11:54:14.792Z,41.53
2023-02-27T11:55:14.792Z,41.86
2023-02-27T11:56:14.784Z,42.40
2023-02-27T11:57:14.786Z,42.48
2023-02-27T11:58:14.754Z,42.46
2023-02-27T11:59:14.753Z,41.50
2023-02-27T12:00:14.799Z,41.27
2023-02-27T12:01:14.748Z,40.66
2023-02-27T12:02:14.734Z,40.33
2023-02-27T12:03:14.748Z,40.23
2023-02-27T12:04:14.759Z,40.25
2023-02-27T12:05:14.692Z,40.17
2023-02-27T12:06:14.678Z,40.88
2023-02-27T12:07:14.679Z,41.07
2023-02-27T12:08:14.656Z,41.07
2023-02-27T12:09:14.641Z,41.29
2023-02-27T12:10:14.711Z,41.50
2023-02-27T12:11:14.942Z,41.72
2023-02-27T12:12:14.633Z,42.15
2023-02-27T12:13:14.613Z,42.32
2023-02-27T12:14:14.591Z,41.77
2023-02-27T12:15:14.574Z,40.54
2023-02-27T12:16:14.627Z,40.11
2023-02-27T12:17:14.573Z,39.58
2023-02-27T12:18:14.557Z,39.69
2023-02-27T12:19:14.544Z,39.76
2023-02-27T12:20:14.614Z,40.17
2023-02-27T12:21:14.516Z,40.77
2023-02-27T12:22:14.513Z,39.95
2023-02-27T12:23:14.505Z,39.32
2023-02-27T12:24:14.474Z,37.99
2023-02-27T12:25:14.490Z,38.13
2023-02-27T12:26:14.456Z,39.48
2023-02-27T12:27:14.478Z,39.09
2023-02-27T12:28:14.435Z,39.62
2023-02-27T12:29:14.448Z,39.94
2023-02-27T12:30:14.415Z,40.37
2023-02-27T12:31:14.463Z,40.49
2023-02-27T12:32:14.482Z,40.92
2023-02-27T12:33:14.399Z,41.46
2023-02-27T12:34:14.383Z,41.95
2023-02-27T12:35:14.363Z,42.27
2023-02-27T12:36:14.357Z,42.15
2023-02-27T12:37:14.359Z,42.03
2023-02-27T12:38:14.328Z,42.01
2023-02-27T12:39:14.328Z,40.15
2023-02-27T12:40:14.300Z,39.41
2023-02-27T12:41:14.312Z,39.50
2023-02-27T12:42:14.299Z,39.51
2023-02-27T12:43:14.279Z,39.84
2023-02-27T12:44:14.257Z,40.27
2023-02-27T12:45:14.248Z,40.70
2023-02-27T12:46:14.355Z,41.13
2023-02-27T12:47:14.252Z,41.95
2023-02-27T12:48:14.250Z,43.05
2023-02-27T12:49:14.219Z,42.42
2023-02-27T12:50:14.199Z,41.83
2023-02-27T12:51:14.188Z,41.53
2023-02-27T12:52:14.189Z,41.97